• Join FlightAware (Why Join?)
  • Login
  • US Flag 
11:49AM EDT


 

Airport Tracker/Info


-or-


 

Live Flight TrackerFlight Track Log ✈ UAL5908 ✈ 29-Apr-2013 ✈ KIAD - KTYS

Flight Track Log - Related Links

Times and Time Zones

All times are in EDT time to prevent confusion due to time zone crossing. See the UAL5908 flight status page for this flight to view local times or setup timezone preferences in your user account.

Time Position Orientation Groundspeed Altitude Reporting Facility
EDT Latitude Longitude Course Direction KTS MPH feet Rate Location/Type
10:08PM 38.6688 -77.6239 201° Southwest  Level FlightAware Approximate
10:09PM 38.5738 -77.6638 197° South  Level FlightAware Approximate
10:10PM 38.4985 -77.7355 230° Southwest  Level FlightAware Approximate
10:11PM 38.4367 -77.8358 234° Southwest  Level FlightAware Approximate
10:12PM 38.3859 -77.9426 235° Southwest  Level FlightAware Approximate
10:13PM 38.3289 -78.0474 235° Southwest  Level FlightAware Approximate
10:14PM 38.2718 -78.1521 235° Southwest  Level FlightAware Approximate
10:15PM 38.2146 -78.2566 235° Southwest  Level FlightAware Approximate
10:16PM 38.1601 -78.3633 238° Southwest  Level FlightAware Approximate
10:17PM 38.1080 -78.4717 243° Southwest  Level FlightAware Approximate
10:18PM 38.0627 -78.5851 243° Southwest  Level FlightAware Approximate
10:19PM 38.0260 -78.7017 246° West  Level FlightAware Approximate
10:20PM 37.9851 -78.8176 246° West  Level FlightAware Approximate
10:21PM 37.9453 -78.9340 251° West  Level FlightAware Approximate
10:22PM 37.9126 -79.0538 251° West  Level FlightAware Approximate
10:23PM 37.8671 -79.1658 238° Southwest  Level FlightAware Approximate
10:24PM 37.8122 -79.2717 236° Southwest  Level FlightAware Approximate
10:25PM 37.7565 -79.3768 236° Southwest  Level FlightAware Approximate
10:26PM 37.7008 -79.4819 236° Southwest  Level FlightAware Approximate
10:27PM 37.6500 -79.5908 240° Southwest  Level FlightAware Approximate
10:28PM 37.5992 -79.6995 239° Southwest  Level FlightAware Approximate
10:29PM 37.5430 -79.8039 234° Southwest  Level FlightAware Approximate
10:30PM 37.4870 -79.9084 237° Southwest  Level FlightAware Approximate
10:31PM 37.4331 -80.0145 237° Southwest  Level FlightAware Approximate
10:32PM 37.3790 -80.1204 237° Southwest  Level FlightAware Approximate
10:33PM 37.3248 -80.2262 237° Southwest  Level FlightAware Approximate
10:34PM 37.2706 -80.3319 237° Southwest  Level FlightAware Approximate
10:35PM 37.2162 -80.4374 237° Southwest  Level FlightAware Approximate
10:36PM 37.1619 -80.5428 238° Southwest  Level FlightAware Approximate
10:37PM 37.1088 -80.6492 238° Southwest  Level FlightAware Approximate
10:38PM 37.0619 -80.7596 246° West  Level FlightAware Approximate
10:39PM 37.0205 -80.8737 246° West  Level FlightAware Approximate
10:40PM 36.9791 -80.9877 246° West  Level FlightAware Approximate
10:41PM 36.9376 -81.1016 246° West  Level FlightAware Approximate
10:42PM 36.8960 -81.2154 245° Southwest  Level FlightAware Approximate
10:43PM 36.8599 -81.3320 250° West  Level FlightAware Approximate
10:44PM 36.8205 -81.4467 245° Southwest  Level FlightAware Approximate
10:45PM 36.7786 -81.5602 245° Southwest  Level FlightAware Approximate
10:46PM 36.7366 -81.6735 245° Southwest  Level FlightAware Approximate
10:47PM 36.6945 -81.7867 245° Southwest  Level FlightAware Approximate
10:48PM 36.6505 -81.8987 244° Southwest  Level FlightAware Approximate
10:49PM 36.6121 -82.0138 248° West  Level FlightAware Approximate
10:50PM 36.5737 -82.1289 247° West  Level FlightAware Approximate
10:51PM 36.5282 -82.2397 242° Southwest  Level FlightAware Approximate
10:52PM 36.4784 -82.3474 246° West  Level FlightAware Approximate
10:53PM 36.4383 -82.4614 246° West  Level FlightAware Approximate
10:54PM 36.3980 -82.5752 246° West  Level FlightAware Approximate
10:55PM 36.3561 -82.6880 245° Southwest  Level FlightAware Approximate
10:56PM 36.3131 -82.8001 245° Southwest  Level FlightAware Approximate
10:57PM 36.2700 -82.9121 245° Southwest  Level FlightAware Approximate
10:58PM 36.2267 -83.0240 244° Southwest  Level FlightAware Approximate
10:59PM 36.1911 -83.1396 251° West  Level FlightAware Approximate
11:00PM 36.1450 -83.2466 245° Southwest  Level FlightAware Approximate
11:01PM 36.1029 -83.3589 245° Southwest  Level FlightAware Approximate
11:02PM 36.0564 -83.4685 242° Southwest  Level FlightAware Approximate
11:03PM 36.0095 -83.5778 242° Southwest  Level FlightAware Approximate
11:04PM 35.9674 -83.6899 246° West  Level FlightAware Approximate
11:05PM 35.9283 -83.8035 253° West  Level FlightAware Approximate
11:06PM 35.8776 -83.9058 219° Southwest  Level FlightAware Approximate